sensor_id;sensor_type;location;lat;lon;timestamp;P1;durP1;ratioP1;P2;durP2;ratioP2
54977;SDS011;40873;47.522;19.106;2022-11-15T00:01:17;35.03;;;13.95;;
54977;SDS011;40873;47.522;19.106;2022-11-15T00:03:45;31.48;;;14.50;;
54977;SDS011;40873;47.522;19.106;2022-11-15T00:06:12;39.67;;;14.88;;
54977;SDS011;40873;47.522;19.106;2022-11-15T00:08:39;36.38;;;15.73;;
54977;SDS011;40873;47.522;19.106;2022-11-15T00:11:06;36.35;;;14.50;;
54977;SDS011;40873;47.522;19.106;2022-11-15T00:13:36;37.55;;;15.60;;
54977;SDS011;40873;47.522;19.106;2022-11-15T00:16:03;39.10;;;15.23;;
54977;SDS011;40873;47.522;19.106;2022-11-15T00:18:30;31.13;;;13.40;;
54977;SDS011;40873;47.522;19.106;2022-11-15T00:21:03;35.90;;;14.30;;
54977;SDS011;40873;47.522;19.106;2022-11-15T00:23:37;33.53;;;13.32;;
54977;SDS011;40873;47.522;19.106;2022-11-15T00:26:05;28.73;;;12.23;;
54977;SDS011;40873;47.522;19.106;2022-11-15T00:28:33;26.83;;;11.95;;
54977;SDS011;40873;47.522;19.106;2022-11-15T00:31:00;21.67;;;10.98;;
54977;SDS011;40873;47.522;19.106;2022-11-15T00:33:32;26.98;;;12.35;;
54977;SDS011;40873;47.522;19.106;2022-11-15T00:36:04;31.25;;;12.45;;
54977;SDS011;40873;47.522;19.106;2022-11-15T00:38:33;34.40;;;13.60;;
54977;SDS011;40873;47.522;19.106;2022-11-15T00:41:02;26.63;;;12.25;;
54977;SDS011;40873;47.522;19.106;2022-11-15T00:43:35;30.55;;;11.60;;
54977;SDS011;40873;47.522;19.106;2022-11-15T00:46:02;27.25;;;12.80;;
54977;SDS011;40873;47.522;19.106;2022-11-15T00:48:29;29.92;;;12.65;;
54977;SDS011;40873;47.522;19.106;2022-11-15T00:50:57;30.60;;;12.82;;
54977;SDS011;40873;47.522;19.106;2022-11-15T00:53:24;24.85;;;11.68;;
54977;SDS011;40873;47.522;19.106;2022-11-15T00:55:51;30.20;;;13.38;;
54977;SDS011;40873;47.522;19.106;2022-11-15T00:58:18;31.23;;;12.35;;
54977;SDS011;40873;47.522;19.106;2022-11-15T01:00:46;31.30;;;13.27;;
54977;SDS011;40873;47.522;19.106;2022-11-15T01:03:12;30.90;;;12.65;;
54977;SDS011;40873;47.522;19.106;2022-11-15T01:05:40;29.30;;;13.45;;
54977;SDS011;40873;47.522;19.106;2022-11-15T01:08:11;30.55;;;13.63;;
54977;SDS011;40873;47.522;19.106;2022-11-15T01:10:39;35.20;;;13.55;;
54977;SDS011;40873;47.522;19.106;2022-11-15T01:13:06;31.30;;;12.48;;
54977;SDS011;40873;47.522;19.106;2022-11-15T01:15:33;28.67;;;12.38;;
54977;SDS011;40873;47.522;19.106;2022-11-15T01:18:00;33.00;;;14.52;;
54977;SDS011;40873;47.522;19.106;2022-11-15T01:20:27;31.42;;;12.85;;
54977;SDS011;40873;47.522;19.106;2022-11-15T01:22:54;33.55;;;12.45;;
54977;SDS011;40873;47.522;19.106;2022-11-15T01:25:21;36.13;;;13.95;;
54977;SDS011;40873;47.522;19.106;2022-11-15T01:27:48;28.38;;;12.93;;
54977;SDS011;40873;47.522;19.106;2022-11-15T01:30:15;30.15;;;12.30;;
54977;SDS011;40873;47.522;19.106;2022-11-15T01:32:42;30.42;;;12.93;;
54977;SDS011;40873;47.522;19.106;2022-11-15T01:35:09;30.92;;;13.27;;
54977;SDS011;40873;47.522;19.106;2022-11-15T01:37:36;31.58;;;14.32;;
54977;SDS011;40873;47.522;19.106;2022-11-15T01:40:03;36.65;;;13.75;;
54977;SDS011;40873;47.522;19.106;2022-11-15T01:42:30;36.63;;;14.48;;
54977;SDS011;40873;47.522;19.106;2022-11-15T01:44:57;33.75;;;14.55;;
54977;SDS011;40873;47.522;19.106;2022-11-15T01:47:25;34.65;;;14.68;;
54977;SDS011;40873;47.522;19.106;2022-11-15T01:50:05;37.17;;;15.60;;
54977;SDS011;40873;47.522;19.106;2022-11-15T01:52:38;38.17;;;15.65;;
54977;SDS011;40873;47.522;19.106;2022-11-15T01:55:11;32.85;;;14.18;;
54977;SDS011;40873;47.522;19.106;2022-11-15T01:57:45;31.95;;;16.20;;
54977;SDS011;40873;47.522;19.106;2022-11-15T02:00:15;41.15;;;16.35;;
54977;SDS011;40873;47.522;19.106;2022-11-15T02:02:42;33.20;;;15.65;;
54977;SDS011;40873;47.522;19.106;2022-11-15T02:05:09;33.22;;;14.23;;
54977;SDS011;40873;47.522;19.106;2022-11-15T02:07:37;35.40;;;15.82;;
54977;SDS011;40873;47.522;19.106;2022-11-15T02:10:06;34.42;;;14.93;;
54977;SDS011;40873;47.522;19.106;2022-11-15T02:12:35;32.00;;;14.32;;
54977;SDS011;40873;47.522;19.106;2022-11-15T02:15:03;29.83;;;14.02;;
54977;SDS011;40873;47.522;19.106;2022-11-15T02:23:02;35.97;;;14.60;;
54977;SDS011;40873;47.522;19.106;2022-11-15T02:29:02;35.25;;;15.07;;
54977;SDS011;40873;47.522;19.106;2022-11-15T02:37:02;31.45;;;13.32;;
54977;SDS011;40873;47.522;19.106;2022-11-15T02:39:51;31.00;;;13.98;;
54977;SDS011;40873;47.522;19.106;2022-11-15T02:42:47;34.38;;;14.65;;
54977;SDS011;40873;47.522;19.106;2022-11-15T02:45:46;35.03;;;13.98;;
54977;SDS011;40873;47.522;19.106;2022-11-15T02:48:18;33.72;;;14.95;;
54977;SDS011;40873;47.522;19.106;2022-11-15T02:50:48;35.13;;;13.82;;
54977;SDS011;40873;47.522;19.106;2022-11-15T02:53:15;32.13;;;14.15;;
54977;SDS011;40873;47.522;19.106;2022-11-15T02:55:48;33.22;;;14.13;;
54977;SDS011;40873;47.522;19.106;2022-11-15T03:03:57;30.63;;;13.73;;
54977;SDS011;40873;47.522;19.106;2022-11-15T03:06:53;34.30;;;13.73;;
54977;SDS011;40873;47.522;19.106;2022-11-15T03:09:33;31.23;;;14.57;;
54977;SDS011;40873;47.522;19.106;2022-11-15T03:12:04;33.58;;;13.70;;
54977;SDS011;40873;47.522;19.106;2022-11-15T03:14:51;32.97;;;15.40;;
54977;SDS011;40873;47.522;19.106;2022-11-15T03:17:26;35.75;;;15.57;;
54977;SDS011;40873;47.522;19.106;2022-11-15T03:19:55;35.85;;;13.77;;
54977;SDS011;40873;47.522;19.106;2022-11-15T03:22:25;35.30;;;15.48;;
54977;SDS011;40873;47.522;19.106;2022-11-15T03:24:57;33.20;;;15.85;;
54977;SDS011;40873;47.522;19.106;2022-11-15T03:27:30;28.27;;;13.52;;
54977;SDS011;40873;47.522;19.106;2022-11-15T03:30:03;36.25;;;15.05;;
54977;SDS011;40873;47.522;19.106;2022-11-15T03:35:33;38.45;;;15.45;;
54977;SDS011;40873;47.522;19.106;2022-11-15T03:38:08;32.17;;;12.95;;
54977;SDS011;40873;47.522;19.106;2022-11-15T03:40:44;34.45;;;14.18;;
54977;SDS011;40873;47.522;19.106;2022-11-15T03:46:01;27.88;;;13.00;;
54977;SDS011;40873;47.522;19.106;2022-11-15T03:48:35;31.67;;;13.45;;
54977;SDS011;40873;47.522;19.106;2022-11-15T03:51:08;27.83;;;13.00;;
54977;SDS011;40873;47.522;19.106;2022-11-15T03:53:35;31.70;;;13.50;;
54977;SDS011;40873;47.522;19.106;2022-11-15T03:56:02;29.58;;;14.23;;
54977;SDS011;40873;47.522;19.106;2022-11-15T03:58:29;33.75;;;14.85;;
54977;SDS011;40873;47.522;19.106;2022-11-15T04:00:56;32.40;;;12.93;;
54977;SDS011;40873;47.522;19.106;2022-11-15T04:03:23;32.13;;;15.13;;
54977;SDS011;40873;47.522;19.106;2022-11-15T04:05:50;30.85;;;12.60;;
54977;SDS011;40873;47.522;19.106;2022-11-15T04:08:17;30.27;;;13.63;;
54977;SDS011;40873;47.522;19.106;2022-11-15T04:10:44;30.88;;;13.65;;
54977;SDS011;40873;47.522;19.106;2022-11-15T04:13:11;30.98;;;12.30;;
54977;SDS011;40873;47.522;19.106;2022-11-15T04:15:38;31.67;;;13.95;;
54977;SDS011;40873;47.522;19.106;2022-11-15T04:18:04;30.73;;;14.48;;
54977;SDS011;40873;47.522;19.106;2022-11-15T04:20:31;28.27;;;13.52;;
54977;SDS011;40873;47.522;19.106;2022-11-15T04:23:18;22.92;;;12.38;;
54977;SDS011;40873;47.522;19.106;2022-11-15T04:26:17;31.65;;;12.63;;
54977;SDS011;40873;47.522;19.106;2022-11-15T04:28:45;28.23;;;12.15;;
54977;SDS011;40873;47.522;19.106;2022-11-15T04:31:31;27.05;;;11.48;;
54977;SDS011;40873;47.522;19.106;2022-11-15T04:33:58;25.88;;;11.77;;
54977;SDS011;40873;47.522;19.106;2022-11-15T04:36:25;25.02;;;11.52;;
54977;SDS011;40873;47.522;19.106;2022-11-15T04:39:11;27.38;;;11.50;;
54977;SDS011;40873;47.522;19.106;2022-11-15T04:41:38;29.90;;;12.63;;
54977;SDS011;40873;47.522;19.106;2022-11-15T04:44:05;25.73;;;12.23;;
54977;SDS011;40873;47.522;19.106;2022-11-15T04:46:32;26.98;;;12.25;;
54977;SDS011;40873;47.522;19.106;2022-11-15T04:48:59;25.85;;;12.18;;
54977;SDS011;40873;47.522;19.106;2022-11-15T04:51:26;23.45;;;11.32;;
54977;SDS011;40873;47.522;19.106;2022-11-15T04:53:53;22.48;;;11.70;;
54977;SDS011;40873;47.522;19.106;2022-11-15T04:56:20;23.90;;;12.68;;
54977;SDS011;40873;47.522;19.106;2022-11-15T04:58:49;22.67;;;10.50;;
54977;SDS011;40873;47.522;19.106;2022-11-15T05:01:17;25.48;;;12.43;;
54977;SDS011;40873;47.522;19.106;2022-11-15T05:03:44;26.83;;;12.23;;
54977;SDS011;40873;47.522;19.106;2022-11-15T05:06:29;23.73;;;10.82;;
54977;SDS011;40873;47.522;19.106;2022-11-15T05:08:57;29.25;;;12.27;;
54977;SDS011;40873;47.522;19.106;2022-11-15T05:11:24;25.30;;;12.40;;
54977;SDS011;40873;47.522;19.106;2022-11-15T05:13:51;26.20;;;12.05;;
54977;SDS011;40873;47.522;19.106;2022-11-15T05:16:18;25.80;;;13.45;;
54977;SDS011;40873;47.522;19.106;2022-11-15T05:18:44;22.15;;;11.50;;
54977;SDS011;40873;47.522;19.106;2022-11-15T05:21:13;24.83;;;11.95;;
54977;SDS011;40873;47.522;19.106;2022-11-15T05:23:41;25.83;;;12.05;;
54977;SDS011;40873;47.522;19.106;2022-11-15T05:26:09;25.63;;;12.43;;
54977;SDS011;40873;47.522;19.106;2022-11-15T05:28:36;25.10;;;11.55;;
54977;SDS011;40873;47.522;19.106;2022-11-15T05:31:05;26.45;;;12.27;;
54977;SDS011;40873;47.522;19.106;2022-11-15T05:33:34;27.73;;;12.05;;
54977;SDS011;40873;47.522;19.106;2022-11-15T05:36:04;28.27;;;12.45;;
54977;SDS011;40873;47.522;19.106;2022-11-15T05:38:36;24.30;;;12.48;;
54977;SDS011;40873;47.522;19.106;2022-11-15T05:41:04;25.00;;;12.68;;
54977;SDS011;40873;47.522;19.106;2022-11-15T05:43:32;26.40;;;12.73;;
54977;SDS011;40873;47.522;19.106;2022-11-15T05:46:01;24.40;;;11.85;;
54977;SDS011;40873;47.522;19.106;2022-11-15T05:48:31;23.58;;;11.80;;
54977;SDS011;40873;47.522;19.106;2022-11-15T05:51:00;27.17;;;12.43;;
54977;SDS011;40873;47.522;19.106;2022-11-15T05:53:29;28.27;;;13.27;;
54977;SDS011;40873;47.522;19.106;2022-11-15T05:55:57;22.00;;;10.93;;
54977;SDS011;40873;47.522;19.106;2022-11-15T05:58:24;28.50;;;13.13;;
54977;SDS011;40873;47.522;19.106;2022-11-15T06:00:51;26.63;;;12.75;;
54977;SDS011;40873;47.522;19.106;2022-11-15T06:03:18;24.33;;;12.73;;
54977;SDS011;40873;47.522;19.106;2022-11-15T06:05:45;25.77;;;13.05;;
54977;SDS011;40873;47.522;19.106;2022-11-15T06:08:11;24.20;;;12.43;;
54977;SDS011;40873;47.522;19.106;2022-11-15T06:10:38;24.80;;;12.10;;
54977;SDS011;40873;47.522;19.106;2022-11-15T06:13:05;27.55;;;12.05;;
54977;SDS011;40873;47.522;19.106;2022-11-15T06:15:32;24.67;;;11.52;;
54977;SDS011;40873;47.522;19.106;2022-11-15T06:18:02;26.25;;;12.73;;
54977;SDS011;40873;47.522;19.106;2022-11-15T06:20:30;28.52;;;12.65;;
54977;SDS011;40873;47.522;19.106;2022-11-15T06:23:02;26.73;;;13.50;;
54977;SDS011;40873;47.522;19.106;2022-11-15T06:25:30;30.55;;;13.65;;
54977;SDS011;40873;47.522;19.106;2022-11-15T06:27:58;28.65;;;13.10;;
54977;SDS011;40873;47.522;19.106;2022-11-15T06:30:25;27.83;;;13.60;;
54977;SDS011;40873;47.522;19.106;2022-11-15T06:32:59;25.40;;;12.82;;
54977;SDS011;40873;47.522;19.106;2022-11-15T06:35:28;27.83;;;12.98;;
54977;SDS011;40873;47.522;19.106;2022-11-15T06:38:01;34.05;;;14.38;;
54977;SDS011;40873;47.522;19.106;2022-11-15T06:40:34;30.23;;;15.02;;
54977;SDS011;40873;47.522;19.106;2022-11-15T06:43:02;31.80;;;14.70;;
54977;SDS011;40873;47.522;19.106;2022-11-15T06:45:30;33.88;;;16.13;;
54977;SDS011;40873;47.522;19.106;2022-11-15T06:47:57;31.60;;;15.57;;
54977;SDS011;40873;47.522;19.106;2022-11-15T06:50:25;33.70;;;16.20;;
54977;SDS011;40873;47.522;19.106;2022-11-15T06:52:52;31.70;;;15.07;;
54977;SDS011;40873;47.522;19.106;2022-11-15T06:55:19;33.45;;;17.55;;
54977;SDS011;40873;47.522;19.106;2022-11-15T06:57:47;34.72;;;18.02;;
54977;SDS011;40873;47.522;19.106;2022-11-15T07:00:15;35.70;;;16.23;;
54977;SDS011;40873;47.522;19.106;2022-11-15T07:02:44;33.88;;;17.05;;
54977;SDS011;40873;47.522;19.106;2022-11-15T07:05:11;32.35;;;17.15;;
54977;SDS011;40873;47.522;19.106;2022-11-15T07:07:38;38.08;;;17.55;;
54977;SDS011;40873;47.522;19.106;2022-11-15T07:10:06;29.83;;;16.30;;
54977;SDS011;40873;47.522;19.106;2022-11-15T07:12:34;33.80;;;16.83;;
54977;SDS011;40873;47.522;19.106;2022-11-15T07:15:01;42.88;;;17.50;;
54977;SDS011;40873;47.522;19.106;2022-11-15T07:17:27;34.72;;;16.67;;
54977;SDS011;40873;47.522;19.106;2022-11-15T07:19:54;30.80;;;16.33;;
54977;SDS011;40873;47.522;19.106;2022-11-15T07:22:21;37.00;;;17.13;;
54977;SDS011;40873;47.522;19.106;2022-11-15T07:24:48;35.97;;;17.33;;
54977;SDS011;40873;47.522;19.106;2022-11-15T07:27:15;33.60;;;15.85;;
54977;SDS011;40873;47.522;19.106;2022-11-15T07:29:42;32.92;;;18.10;;
54977;SDS011;40873;47.522;19.106;2022-11-15T07:32:09;36.97;;;18.30;;
54977;SDS011;40873;47.522;19.106;2022-11-15T07:34:36;36.85;;;16.35;;
54977;SDS011;40873;47.522;19.106;2022-11-15T07:37:03;33.17;;;16.85;;
54977;SDS011;40873;47.522;19.106;2022-11-15T07:39:30;35.33;;;17.65;;
54977;SDS011;40873;47.522;19.106;2022-11-15T07:41:57;36.58;;;17.63;;
54977;SDS011;40873;47.522;19.106;2022-11-15T07:44:42;43.55;;;18.90;;
54977;SDS011;40873;47.522;19.106;2022-11-15T07:47:09;35.63;;;17.90;;
54977;SDS011;40873;47.522;19.106;2022-11-15T07:49:36;35.75;;;16.98;;
54977;SDS011;40873;47.522;19.106;2022-11-15T07:52:02;34.22;;;18.52;;
54977;SDS011;40873;47.522;19.106;2022-11-15T07:54:30;29.30;;;17.08;;
54977;SDS011;40873;47.522;19.106;2022-11-15T07:56:57;36.88;;;17.88;;
54977;SDS011;40873;47.522;19.106;2022-11-15T07:59:31;32.35;;;16.60;;
54977;SDS011;40873;47.522;19.106;2022-11-15T08:01:57;32.00;;;16.77;;
54977;SDS011;40873;47.522;19.106;2022-11-15T08:04:25;31.45;;;16.77;;
54977;SDS011;40873;47.522;19.106;2022-11-15T08:06:51;32.28;;;18.77;;
54977;SDS011;40873;47.522;19.106;2022-11-15T08:09:19;33.38;;;17.15;;
54977;SDS011;40873;47.522;19.106;2022-11-15T08:11:48;36.55;;;17.85;;
54977;SDS011;40873;47.522;19.106;2022-11-15T08:14:15;36.65;;;19.42;;
54977;SDS011;40873;47.522;19.106;2022-11-15T08:16:43;32.63;;;17.38;;
54977;SDS011;40873;47.522;19.106;2022-11-15T08:19:10;30.05;;;16.88;;
54977;SDS011;40873;47.522;19.106;2022-11-15T08:21:37;31.77;;;17.95;;
54977;SDS011;40873;47.522;19.106;2022-11-15T08:24:04;34.20;;;17.20;;
54977;SDS011;40873;47.522;19.106;2022-11-15T08:26:31;34.92;;;17.95;;
54977;SDS011;40873;47.522;19.106;2022-11-15T08:28:58;32.25;;;16.88;;
54977;SDS011;40873;47.522;19.106;2022-11-15T08:31:25;31.55;;;17.50;;
54977;SDS011;40873;47.522;19.106;2022-11-15T08:33:52;34.63;;;18.13;;
54977;SDS011;40873;47.522;19.106;2022-11-15T08:36:18;32.78;;;17.95;;
54977;SDS011;40873;47.522;19.106;2022-11-15T08:38:46;34.97;;;17.42;;
54977;SDS011;40873;47.522;19.106;2022-11-15T08:41:16;31.40;;;17.58;;
54977;SDS011;40873;47.522;19.106;2022-11-15T08:43:51;42.08;;;19.77;;
54977;SDS011;40873;47.522;19.106;2022-11-15T08:46:18;39.75;;;18.40;;
54977;SDS011;40873;47.522;19.106;2022-11-15T08:48:45;36.33;;;17.83;;
54977;SDS011;40873;47.522;19.106;2022-11-15T08:51:12;34.80;;;18.88;;
54977;SDS011;40873;47.522;19.106;2022-11-15T08:53:39;38.10;;;19.83;;
54977;SDS011;40873;47.522;19.106;2022-11-15T08:56:07;43.28;;;20.58;;
54977;SDS011;40873;47.522;19.106;2022-11-15T08:58:35;37.03;;;19.05;;
54977;SDS011;40873;47.522;19.106;2022-11-15T09:01:03;43.33;;;21.15;;
54977;SDS011;40873;47.522;19.106;2022-11-15T09:03:31;39.03;;;20.73;;
54977;SDS011;40873;47.522;19.106;2022-11-15T09:05:58;38.25;;;20.13;;
54977;SDS011;40873;47.522;19.106;2022-11-15T09:08:29;44.42;;;21.67;;
54977;SDS011;40873;47.522;19.106;2022-11-15T09:11:13;40.35;;;19.42;;
54977;SDS011;40873;47.522;19.106;2022-11-15T09:13:41;44.85;;;19.98;;
54977;SDS011;40873;47.522;19.106;2022-11-15T09:16:08;33.55;;;18.10;;
54977;SDS011;40873;47.522;19.106;2022-11-15T09:18:35;33.20;;;18.45;;
54977;SDS011;40873;47.522;19.106;2022-11-15T09:21:02;38.85;;;19.73;;
54977;SDS011;40873;47.522;19.106;2022-11-15T09:23:29;38.85;;;19.98;;
54977;SDS011;40873;47.522;19.106;2022-11-15T09:26:00;36.35;;;18.65;;
54977;SDS011;40873;47.522;19.106;2022-11-15T09:28:29;35.47;;;20.55;;
54977;SDS011;40873;47.522;19.106;2022-11-15T09:30:58;37.97;;;20.77;;
54977;SDS011;40873;47.522;19.106;2022-11-15T09:33:26;35.88;;;19.60;;
54977;SDS011;40873;47.522;19.106;2022-11-15T09:35:53;34.47;;;18.85;;
54977;SDS011;40873;47.522;19.106;2022-11-15T09:38:26;39.50;;;20.58;;
54977;SDS011;40873;47.522;19.106;2022-11-15T09:40:55;41.20;;;21.50;;
54977;SDS011;40873;47.522;19.106;2022-11-15T09:43:38;43.30;;;21.25;;
54977;SDS011;40873;47.522;19.106;2022-11-15T09:51:25;42.40;;;21.60;;
54977;SDS011;40873;47.522;19.106;2022-11-15T10:03:13;36.53;;;18.33;;
54977;SDS011;40873;47.522;19.106;2022-11-15T10:05:55;38.50;;;19.83;;
54977;SDS011;40873;47.522;19.106;2022-11-15T10:11:00;34.72;;;18.10;;
54977;SDS011;40873;47.522;19.106;2022-11-15T10:13:50;36.78;;;17.20;;
54977;SDS011;40873;47.522;19.106;2022-11-15T10:22:02;39.20;;;19.88;;
54977;SDS011;40873;47.522;19.106;2022-11-15T10:24:50;32.40;;;17.83;;
54977;SDS011;40873;47.522;19.106;2022-11-15T10:27:27;31.83;;;18.20;;
54977;SDS011;40873;47.522;19.106;2022-11-15T10:29:53;38.35;;;19.00;;
54977;SDS011;40873;47.522;19.106;2022-11-15T10:32:20;35.20;;;18.15;;
54977;SDS011;40873;47.522;19.106;2022-11-15T10:34:48;33.22;;;18.73;;
54977;SDS011;40873;47.522;19.106;2022-11-15T10:37:29;38.75;;;20.38;;
54977;SDS011;40873;47.522;19.106;2022-11-15T10:40:13;35.65;;;19.08;;
54977;SDS011;40873;47.522;19.106;2022-11-15T10:42:43;37.95;;;19.52;;
54977;SDS011;40873;47.522;19.106;2022-11-15T10:45:23;40.53;;;19.67;;
54977;SDS011;40873;47.522;19.106;2022-11-15T10:47:52;37.55;;;19.38;;
54977;SDS011;40873;47.522;19.106;2022-11-15T10:50:27;44.22;;;20.85;;
54977;SDS011;40873;47.522;19.106;2022-11-15T10:52:56;37.78;;;21.45;;
54977;SDS011;40873;47.522;19.106;2022-11-15T10:55:25;39.28;;;21.50;;
54977;SDS011;40873;47.522;19.106;2022-11-15T10:58:09;37.58;;;20.95;;
54977;SDS011;40873;47.522;19.106;2022-11-15T11:01:08;42.50;;;21.45;;
54977;SDS011;40873;47.522;19.106;2022-11-15T11:03:38;34.88;;;20.08;;
54977;SDS011;40873;47.522;19.106;2022-11-15T11:06:16;44.05;;;21.75;;
54977;SDS011;40873;47.522;19.106;2022-11-15T11:08:57;39.47;;;20.75;;
54977;SDS011;40873;47.522;19.106;2022-11-15T11:11:45;34.58;;;19.52;;
54977;SDS011;40873;47.522;19.106;2022-11-15T11:14:13;38.63;;;18.55;;
54977;SDS011;40873;47.522;19.106;2022-11-15T11:27:08;39.00;;;18.92;;
54977;SDS011;40873;47.522;19.106;2022-11-15T11:30:02;38.00;;;20.50;;
54977;SDS011;40873;47.522;19.106;2022-11-15T11:32:46;35.00;;;20.50;;
54977;SDS011;40873;47.522;19.106;2022-11-15T11:35:44;33.97;;;18.48;;
54977;SDS011;40873;47.522;19.106;2022-11-15T11:38:51;36.58;;;20.02;;
54977;SDS011;40873;47.522;19.106;2022-11-15T11:47:15;34.03;;;18.98;;
54977;SDS011;40873;47.522;19.106;2022-11-15T11:49:52;36.58;;;19.48;;
54977;SDS011;40873;47.522;19.106;2022-11-15T11:52:43;37.05;;;19.33;;
54977;SDS011;40873;47.522;19.106;2022-11-15T11:58:44;30.13;;;17.38;;
54977;SDS011;40873;47.522;19.106;2022-11-15T12:01:47;31.92;;;17.85;;
54977;SDS011;40873;47.522;19.106;2022-11-15T12:04:17;36.35;;;18.67;;
54977;SDS011;40873;47.522;19.106;2022-11-15T12:09:23;35.50;;;17.42;;
54977;SDS011;40873;47.522;19.106;2022-11-15T12:14:48;35.75;;;17.27;;
54977;SDS011;40873;47.522;19.106;2022-11-15T12:17:19;36.20;;;18.33;;
54977;SDS011;40873;47.522;19.106;2022-11-15T12:19:59;33.03;;;18.25;;
54977;SDS011;40873;47.522;19.106;2022-11-15T12:22:42;36.42;;;18.58;;
54977;SDS011;40873;47.522;19.106;2022-11-15T12:25:18;36.28;;;18.95;;
54977;SDS011;40873;47.522;19.106;2022-11-15T12:27:48;40.30;;;19.60;;
54977;SDS011;40873;47.522;19.106;2022-11-15T12:30:27;38.55;;;20.60;;
54977;SDS011;40873;47.522;19.106;2022-11-15T12:33:09;46.63;;;22.50;;
54977;SDS011;40873;47.522;19.106;2022-11-15T12:36:02;39.28;;;21.70;;
54977;SDS011;40873;47.522;19.106;2022-11-15T12:48:53;48.85;;;23.05;;
54977;SDS011;40873;47.522;19.106;2022-11-15T12:52:05;51.08;;;22.85;;
54977;SDS011;40873;47.522;19.106;2022-11-15T12:59:57;50.42;;;24.83;;
54977;SDS011;40873;47.522;19.106;2022-11-15T13:02:51;46.90;;;23.67;;
54977;SDS011;40873;47.522;19.106;2022-11-15T13:08:34;52.53;;;26.17;;
54977;SDS011;40873;47.522;19.106;2022-11-15T13:20:15;52.33;;;23.33;;
54977;SDS011;40873;47.522;19.106;2022-11-15T13:22:49;52.13;;;24.75;;
54977;SDS011;40873;47.522;19.106;2022-11-15T13:25:26;51.03;;;23.77;;
54977;SDS011;40873;47.522;19.106;2022-11-15T13:28:01;50.65;;;23.70;;
54977;SDS011;40873;47.522;19.106;2022-11-15T13:30:52;50.95;;;23.33;;
54977;SDS011;40873;47.522;19.106;2022-11-15T13:33:22;47.55;;;22.48;;
54977;SDS011;40873;47.522;19.106;2022-11-15T13:36:08;48.22;;;22.17;;
54977;SDS011;40873;47.522;19.106;2022-11-15T13:38:40;43.50;;;22.23;;
54977;SDS011;40873;47.522;19.106;2022-11-15T13:41:14;51.95;;;23.40;;
54977;SDS011;40873;47.522;19.106;2022-11-15T13:43:48;43.42;;;20.75;;
54977;SDS011;40873;47.522;19.106;2022-11-15T13:48:52;42.10;;;21.35;;
54977;SDS011;40873;47.522;19.106;2022-11-15T13:57:04;41.85;;;20.60;;
54977;SDS011;40873;47.522;19.106;2022-11-15T13:59:43;45.22;;;19.45;;
54977;SDS011;40873;47.522;19.106;2022-11-15T14:02:17;36.90;;;17.70;;
54977;SDS011;40873;47.522;19.106;2022-11-15T14:04:48;35.83;;;17.92;;
54977;SDS011;40873;47.522;19.106;2022-11-15T14:07:19;39.15;;;19.30;;
54977;SDS011;40873;47.522;19.106;2022-11-15T14:09:48;45.90;;;20.13;;
54977;SDS011;40873;47.522;19.106;2022-11-15T14:12:29;46.95;;;21.60;;
54977;SDS011;40873;47.522;19.106;2022-11-15T14:15:17;41.67;;;20.58;;
54977;SDS011;40873;47.522;19.106;2022-11-15T14:17:57;39.92;;;19.73;;
54977;SDS011;40873;47.522;19.106;2022-11-15T14:22:52;39.10;;;19.48;;
54977;SDS011;40873;47.522;19.106;2022-11-15T14:25:27;37.60;;;19.88;;
54977;SDS011;40873;47.522;19.106;2022-11-15T14:28:09;37.63;;;19.60;;
54977;SDS011;40873;47.522;19.106;2022-11-15T14:30:57;36.50;;;19.48;;
54977;SDS011;40873;47.522;19.106;2022-11-15T14:35:57;41.53;;;21.20;;
54977;SDS011;40873;47.522;19.106;2022-11-15T14:38:29;37.60;;;18.23;;
54977;SDS011;40873;47.522;19.106;2022-11-15T14:40:56;42.00;;;20.23;;
54977;SDS011;40873;47.522;19.106;2022-11-15T14:43:24;44.47;;;19.50;;
54977;SDS011;40873;47.522;19.106;2022-11-15T14:45:51;37.67;;;19.08;;
54977;SDS011;40873;47.522;19.106;2022-11-15T14:48:18;39.13;;;19.15;;
54977;SDS011;40873;47.522;19.106;2022-11-15T14:50:45;38.40;;;17.45;;
54977;SDS011;40873;47.522;19.106;2022-11-15T14:53:16;39.38;;;19.20;;
54977;SDS011;40873;47.522;19.106;2022-11-15T14:55:44;35.83;;;17.27;;
54977;SDS011;40873;47.522;19.106;2022-11-15T14:58:11;35.72;;;17.15;;
54977;SDS011;40873;47.522;19.106;2022-11-15T15:00:38;34.53;;;18.15;;
54977;SDS011;40873;47.522;19.106;2022-11-15T15:03:07;41.17;;;19.23;;
54977;SDS011;40873;47.522;19.106;2022-11-15T15:05:35;37.13;;;18.33;;
54977;SDS011;40873;47.522;19.106;2022-11-15T15:08:04;36.25;;;17.40;;
54977;SDS011;40873;47.522;19.106;2022-11-15T15:10:33;39.25;;;19.55;;
54977;SDS011;40873;47.522;19.106;2022-11-15T15:15:47;34.80;;;17.63;;
54977;SDS011;40873;47.522;19.106;2022-11-15T15:18:16;33.00;;;15.98;;
54977;SDS011;40873;47.522;19.106;2022-11-15T15:20:49;35.03;;;17.83;;
54977;SDS011;40873;47.522;19.106;2022-11-15T15:23:23;35.92;;;17.88;;
54977;SDS011;40873;47.522;19.106;2022-11-15T15:25:52;35.55;;;17.85;;
54977;SDS011;40873;47.522;19.106;2022-11-15T15:28:20;35.75;;;17.33;;
54977;SDS011;40873;47.522;19.106;2022-11-15T15:30:47;39.25;;;17.05;;
54977;SDS011;40873;47.522;19.106;2022-11-15T15:33:16;35.10;;;16.92;;
54977;SDS011;40873;47.522;19.106;2022-11-15T15:35:48;38.40;;;18.88;;
54977;SDS011;40873;47.522;19.106;2022-11-15T15:38:15;32.35;;;16.75;;
54977;SDS011;40873;47.522;19.106;2022-11-15T15:40:45;31.75;;;16.52;;
54977;SDS011;40873;47.522;19.106;2022-11-15T15:43:12;31.83;;;16.90;;
54977;SDS011;40873;47.522;19.106;2022-11-15T15:45:39;33.47;;;16.10;;
54977;SDS011;40873;47.522;19.106;2022-11-15T15:48:12;32.72;;;17.63;;
54977;SDS011;40873;47.522;19.106;2022-11-15T15:50:41;33.25;;;15.05;;
54977;SDS011;40873;47.522;19.106;2022-11-15T15:53:12;35.13;;;16.83;;
54977;SDS011;40873;47.522;19.106;2022-11-15T15:55:39;34.58;;;17.13;;
54977;SDS011;40873;47.522;19.106;2022-11-15T15:58:09;29.65;;;14.50;;
54977;SDS011;40873;47.522;19.106;2022-11-15T16:00:36;32.03;;;15.65;;
54977;SDS011;40873;47.522;19.106;2022-11-15T16:03:04;32.55;;;16.55;;
54977;SDS011;40873;47.522;19.106;2022-11-15T16:05:30;32.13;;;15.40;;
54977;SDS011;40873;47.522;19.106;2022-11-15T16:07:58;30.63;;;15.65;;
54977;SDS011;40873;47.522;19.106;2022-11-15T16:10:25;32.25;;;15.90;;
54977;SDS011;40873;47.522;19.106;2022-11-15T16:12:55;31.13;;;16.23;;
54977;SDS011;40873;47.522;19.106;2022-11-15T16:15:24;37.63;;;15.85;;
54977;SDS011;40873;47.522;19.106;2022-11-15T16:18:01;37.83;;;17.33;;
54977;SDS011;40873;47.522;19.106;2022-11-15T16:20:41;37.40;;;17.30;;
54977;SDS011;40873;47.522;19.106;2022-11-15T16:23:10;37.58;;;17.13;;
54977;SDS011;40873;47.522;19.106;2022-11-15T16:28:30;35.17;;;17.30;;
54977;SDS011;40873;47.522;19.106;2022-11-15T16:31:08;39.00;;;17.98;;
54977;SDS011;40873;47.522;19.106;2022-11-15T16:33:36;38.25;;;16.60;;